Disclaimer

Please do not use the information listed here in-flight or in-navigation, as they are not provided to us by the airports but are provided by volunteers, so they might be outdated.

Search


Regions


Airport information page

No radio frequency information is available.

Airport informations:
Latitude: 03° 51' 19.75" N
Longitude: 051° 47' 48.72" W
Elevation: 63 feet - 19 meters
Operating hours: N/A
Operating agency: Civil government, landing fees and diplomatic clearance may be required
Timezone: UTC-3(-2DT)
Fuel: N/A

Runway information:
03/21 - 3937 x 98 feet< - >1200 x 30 meters

Recent METARs:
SBOI 211700Z 04005KT 9999 BKN025 SCT090 32/24 Q1011
SBOI 211700Z 04005KT 9999 BKN025 SCT090 32/24 Q1011
SBOI 211800Z 03014KT 9999 BKN025 31/24 Q1010

Airport on the map: